createdAt,value
2023-10-30T00:01:32.832Z,63.93
2023-10-30T00:04:02.725Z,64.51
2023-10-30T00:06:31.990Z,64.29
2023-10-30T00:09:04.065Z,63.69
2023-10-30T00:11:31.949Z,63.65
2023-10-30T00:14:01.254Z,63.78
2023-10-30T00:16:28.176Z,63.10
2023-10-30T00:18:54.844Z,63.22
2023-10-30T00:21:21.416Z,63.11
2023-10-30T00:23:49.358Z,63.24
2023-10-30T00:26:15.946Z,63.06
2023-10-30T00:28:42.742Z,63.91
2023-10-30T00:31:13.711Z,63.74
2023-10-30T00:33:43.067Z,63.98
2023-10-30T00:36:11.233Z,64.43
2023-10-30T00:38:38.081Z,64.86
2023-10-30T00:41:09.646Z,64.85
2023-10-30T00:43:39.363Z,63.84
2023-10-30T00:46:06.575Z,63.97
2023-10-30T00:48:33.376Z,64.25
2023-10-30T00:51:01.656Z,64.60
2023-10-30T00:53:28.668Z,64.30
2023-10-30T00:55:56.851Z,64.20
2023-10-30T00:58:27.323Z,64.15
2023-10-30T01:00:54.264Z,64.02
2023-10-30T01:03:21.716Z,64.02
2023-10-30T01:05:56.529Z,63.84
2023-10-30T01:08:23.331Z,64.36
2023-10-30T01:10:51.544Z,63.74
2023-10-30T01:13:21.264Z,64.79
2023-10-30T01:15:58.148Z,65.29
2023-10-30T01:18:28.807Z,64.42
2023-10-30T01:20:59.732Z,64.48
2023-10-30T01:23:28.018Z,64.67
2023-10-30T01:25:57.032Z,65.40
2023-10-30T01:28:23.766Z,65.88
2023-10-30T01:30:50.781Z,65.75
2023-10-30T01:33:19.502Z,65.46
2023-10-30T01:35:46.159Z,65.36
2023-10-30T01:38:13.168Z,65.73
2023-10-30T01:40:48.200Z,65.73
2023-10-30T01:43:14.811Z,65.95
2023-10-30T01:45:41.549Z,65.61
2023-10-30T01:48:09.324Z,66.58
2023-10-30T01:50:38.096Z,65.85
2023-10-30T01:53:04.842Z,65.89
2023-10-30T01:55:32.008Z,66.62
2023-10-30T01:57:58.533Z,65.76
2023-10-30T02:00:28.246Z,66.66
2023-10-30T02:02:57.118Z,66.19
2023-10-30T02:05:23.662Z,66.51
2023-10-30T02:07:51.726Z,65.96
2023-10-30T02:10:18.523Z,65.79
2023-10-30T02:12:49.254Z,66.42
2023-10-30T02:15:15.754Z,66.01
2023-10-30T02:17:42.296Z,67.09
2023-10-30T02:20:09.601Z,66.91
2023-10-30T02:22:36.187Z,67.00
2023-10-30T02:25:05.305Z,66.90
2023-10-30T02:27:33.158Z,67.11
2023-10-30T02:29:59.718Z,66.35
2023-10-30T02:32:26.154Z,66.27
2023-10-30T02:34:52.678Z,66.96
2023-10-30T02:37:19.252Z,66.61
2023-10-30T02:39:45.712Z,66.55
2023-10-30T02:42:12.627Z,66.67
2023-10-30T02:44:40.428Z,67.22
2023-10-30T02:47:06.872Z,66.92
2023-10-30T02:49:33.530Z,66.35
2023-10-30T02:51:59.949Z,66.11
2023-10-30T02:54:26.504Z,66.49
2023-10-30T02:56:52.962Z,66.56
2023-10-30T02:59:19.489Z,66.68
2023-10-30T03:01:47.353Z,67.20
2023-10-30T03:04:14.083Z,66.19
2023-10-30T03:06:41.076Z,66.02
2023-10-30T03:09:07.743Z,66.34
2023-10-30T03:11:34.381Z,65.74
2023-10-30T03:14:00.837Z,66.72
2023-10-30T03:16:27.428Z,66.03
2023-10-30T03:18:55.449Z,66.02
2023-10-30T03:21:22.136Z,66.23
2023-10-30T03:23:48.789Z,66.45
2023-10-30T03:26:15.286Z,66.63
2023-10-30T03:28:41.724Z,67.50
2023-10-30T03:31:09.203Z,67.40
2023-10-30T03:33:36.554Z,66.77
2023-10-30T03:36:05.574Z,67.56
2023-10-30T03:38:32.195Z,66.88
2023-10-30T03:40:59.689Z,66.83
2023-10-30T03:43:26.120Z,67.72
2023-10-30T03:45:52.902Z,67.59
2023-10-30T03:48:19.482Z,67.95
2023-10-30T03:50:49.631Z,67.64
2023-10-30T03:53:17.392Z,67.34
2023-10-30T03:55:43.927Z,67.00
2023-10-30T03:58:10.463Z,67.63
2023-10-30T04:00:37.033Z,67.58
2023-10-30T04:03:03.557Z,67.66
2023-10-30T04:05:30.145Z,67.91
2023-10-30T04:07:56.627Z,67.63
2023-10-30T04:10:24.455Z,67.02
2023-10-30T04:12:53.287Z,67.65
2023-10-30T04:15:20.115Z,67.91
2023-10-30T04:17:46.718Z,67.42
2023-10-30T04:20:13.282Z,66.87
2023-10-30T04:22:39.787Z,67.47
2023-10-30T04:25:08.375Z,68.11
2023-10-30T04:27:36.198Z,67.45
2023-10-30T04:30:03.113Z,67.92
2023-10-30T04:32:29.679Z,67.12
2023-10-30T04:34:56.136Z,67.26
2023-10-30T04:37:22.628Z,67.04
2023-10-30T04:39:49.423Z,67.33
2023-10-30T04:42:16.288Z,67.71
2023-10-30T04:44:44.247Z,68.02
2023-10-30T04:47:10.677Z,67.52
2023-10-30T04:49:37.175Z,67.26
2023-10-30T04:52:04.193Z,67.21
2023-10-30T04:54:30.834Z,67.41
2023-10-30T04:56:57.321Z,67.09
2023-10-30T04:59:23.796Z,67.90
2023-10-30T05:01:51.647Z,67.33
2023-10-30T05:04:18.121Z,66.77
2023-10-30T05:06:44.688Z,67.15
2023-10-30T05:09:11.249Z,67.33
2023-10-30T05:11:38.124Z,67.30
2023-10-30T05:14:04.968Z,67.92
2023-10-30T05:16:31.474Z,67.95
2023-10-30T05:18:59.403Z,67.23
2023-10-30T05:21:25.995Z,67.12
2023-10-30T05:23:52.544Z,67.46
2023-10-30T05:26:19.029Z,67.45
2023-10-30T05:28:45.750Z,67.60
2023-10-30T05:31:12.340Z,68.18
2023-10-30T05:33:39.194Z,67.86
2023-10-30T05:36:07.662Z,67.41
2023-10-30T05:38:34.272Z,68.02
2023-10-30T05:41:00.744Z,67.96
2023-10-30T05:43:27.537Z,67.51
2023-10-30T05:45:54.104Z,67.17
2023-10-30T05:48:20.753Z,68.11
2023-10-30T05:50:47.199Z,67.85
2023-10-30T05:53:15.088Z,68.10
2023-10-30T05:55:45.462Z,68.24
2023-10-30T05:58:12.230Z,67.79
2023-10-30T06:00:38.912Z,67.81
2023-10-30T06:03:07.895Z,67.64
2023-10-30T06:05:34.483Z,67.99
2023-10-30T06:08:01.204Z,69.14
2023-10-30T06:10:29.298Z,68.84
2023-10-30T06:12:57.402Z,69.23
2023-10-30T06:15:28.786Z,69.26
2023-10-30T06:17:55.750Z,69.78
2023-10-30T06:20:27.831Z,68.81
2023-10-30T06:23:26.831Z,68.79
2023-10-30T06:26:25.455Z,69.19
2023-10-30T06:28:54.507Z,68.71
2023-10-30T06:31:28.243Z,69.20
2023-10-30T06:33:54.861Z,69.07
2023-10-30T06:36:31.083Z,69.36
2023-10-30T06:39:03.252Z,68.99
2023-10-30T06:41:32.178Z,68.28
2023-10-30T06:44:08.101Z,68.61
2023-10-30T06:46:49.669Z,68.48
2023-10-30T06:49:30.365Z,68.38
2023-10-30T06:51:57.929Z,69.19
2023-10-30T06:54:30.595Z,69.26
2023-10-30T06:56:59.072Z,69.58
2023-10-30T06:59:28.197Z,69.02
2023-10-30T07:02:00.029Z,68.62
2023-10-30T07:04:33.216Z,69.68
2023-10-30T07:07:13.156Z,69.38
2023-10-30T07:09:43.817Z,69.86
2023-10-30T07:12:12.710Z,69.30
2023-10-30T07:14:39.566Z,70.00
2023-10-30T07:17:06.251Z,69.40
2023-10-30T07:19:32.748Z,69.35
2023-10-30T07:21:59.264Z,68.70
2023-10-30T07:24:26.176Z,69.12
2023-10-30T07:33:54.985Z,67.39
2023-10-30T07:36:21.761Z,66.95
2023-10-30T08:11:00.661Z,61.17
2023-10-30T08:13:27.478Z,59.23
2023-10-30T08:15:54.412Z,58.47
2023-10-30T08:18:22.552Z,58.59
2023-10-30T08:20:49.163Z,57.37
2023-10-30T08:23:21.412Z,56.39
2023-10-30T08:25:48.190Z,55.82
2023-10-30T08:28:23.700Z,54.81
2023-10-30T08:31:00.026Z,55.55
2023-10-30T08:33:28.039Z,55.96
2023-10-30T08:35:58.520Z,55.75
2023-10-30T08:38:25.042Z,55.46
2023-10-30T08:40:51.630Z,56.31
2023-10-30T08:43:18.105Z,55.56
2023-10-30T08:45:52.507Z,56.31
2023-10-30T08:48:20.108Z,56.67
2023-10-30T08:50:48.201Z,56.50
2023-10-30T08:53:15.462Z,57.27
2023-10-30T08:55:42.166Z,57.20
2023-10-30T08:58:08.777Z,56.76
2023-10-30T09:00:39.770Z,56.16
2023-10-30T09:03:07.596Z,56.14
2023-10-30T09:05:34.391Z,56.00
2023-10-30T09:08:02.412Z,55.78
2023-10-30T09:10:28.943Z,55.42
2023-10-30T09:12:55.598Z,54.45
2023-10-30T09:15:22.435Z,54.22
2023-10-30T09:17:49.136Z,54.37
2023-10-30T09:20:15.835Z,55.01
2023-10-30T09:22:42.381Z,54.37
2023-10-30T09:25:10.334Z,53.65
2023-10-30T09:27:36.995Z,52.96
2023-10-30T09:30:04.048Z,53.44
2023-10-30T09:32:30.883Z,52.93
2023-10-30T09:34:57.882Z,53.13
2023-10-30T09:37:24.473Z,52.36
2023-10-30T09:39:51.181Z,52.22
2023-10-30T09:42:19.005Z,52.07
2023-10-30T09:44:46.125Z,51.82
2023-10-30T09:47:13.205Z,51.67
2023-10-30T09:49:40.424Z,51.48
2023-10-30T09:52:09.024Z,50.67
2023-10-30T09:54:36.355Z,50.94
2023-10-30T09:57:03.799Z,50.94
2023-10-30T09:59:33.764Z,50.60
2023-10-30T10:02:01.070Z,50.25
2023-10-30T10:04:27.753Z,50.69
2023-10-30T10:06:55.310Z,50.83
2023-10-30T10:09:21.895Z,50.73
2023-10-30T10:12:03.345Z,50.73
2023-10-30T10:14:35.092Z,51.18
2023-10-30T10:17:05.963Z,50.10
2023-10-30T10:19:34.320Z,50.45
2023-10-30T10:22:05.647Z,50.59
2023-10-30T10:24:38.304Z,50.44
2023-10-30T10:27:05.965Z,49.96
2023-10-30T10:29:36.080Z,50.49
2023-10-30T10:32:02.889Z,49.90
2023-10-30T10:34:32.311Z,49.41
2023-10-30T10:36:59.629Z,49.26
2023-10-30T10:39:26.403Z,49.23
2023-10-30T10:41:54.166Z,48.75
2023-10-30T10:44:22.630Z,48.83
2023-10-30T10:46:51.834Z,48.22
2023-10-30T10:49:21.311Z,47.88
2023-10-30T10:51:48.400Z,48.69
2023-10-30T10:54:24.023Z,47.58
2023-10-30T10:56:54.113Z,47.06
2023-10-30T10:59:27.365Z,46.65
2023-10-30T11:02:00.089Z,47.26
2023-10-30T11:04:28.871Z,46.91
2023-10-30T11:07:04.409Z,46.91
2023-10-30T11:12:58.081Z,48.39
2023-10-30T11:15:55.156Z,48.60
2023-10-30T11:21:41.238Z,49.49
2023-10-30T11:24:11.653Z,49.42
2023-10-30T11:26:40.603Z,48.76
2023-10-30T11:29:11.745Z,48.25
2023-10-30T11:31:52.395Z,47.86
2023-10-30T11:34:35.239Z,48.42
2023-10-30T11:37:16.642Z,48.25
2023-10-30T11:40:15.179Z,48.08
2023-10-30T11:42:43.889Z,47.91
2023-10-30T11:45:19.705Z,48.67
2023-10-30T11:47:47.215Z,48.44
2023-10-30T11:50:16.578Z,49.19
2023-10-30T11:52:45.435Z,48.99
2023-10-30T11:55:12.480Z,48.11
2023-10-30T11:57:39.707Z,48.54
2023-10-30T12:00:07.477Z,49.46
2023-10-30T12:02:40.015Z,49.20
2023-10-30T12:05:07.156Z,48.88
2023-10-30T12:07:33.941Z,49.11
2023-10-30T12:10:02.222Z,49.99
2023-10-30T12:12:34.811Z,50.57
2023-10-30T12:15:01.882Z,50.80
2023-10-30T12:17:40.532Z,51.06
2023-10-30T12:20:38.073Z,51.50
2023-10-30T12:23:09.399Z,51.29
2023-10-30T12:25:38.733Z,51.83
2023-10-30T12:28:05.307Z,52.61
2023-10-30T12:30:35.529Z,52.62
2023-10-30T12:33:02.302Z,52.68
2023-10-30T12:35:29.065Z,52.40
2023-10-30T12:37:55.908Z,52.24
2023-10-30T12:40:22.503Z,51.96
2023-10-30T12:42:50.477Z,51.30
2023-10-30T12:45:21.898Z,51.48
2023-10-30T12:47:49.672Z,51.29
2023-10-30T12:50:17.137Z,51.17
2023-10-30T12:52:44.165Z,51.17
2023-10-30T12:55:11.863Z,51.15
2023-10-30T12:57:38.570Z,50.66
2023-10-30T13:00:16.354Z,50.61
2023-10-30T13:02:43.217Z,49.98
2023-10-30T13:05:10.009Z,50.15
2023-10-30T13:07:43.955Z,50.79
2023-10-30T13:10:10.558Z,50.62
2023-10-30T13:12:37.077Z,50.89
2023-10-30T13:15:04.236Z,50.79
2023-10-30T13:17:32.243Z,50.60
2023-10-30T13:19:58.769Z,50.70
2023-10-30T13:22:25.942Z,50.76
2023-10-30T13:24:52.774Z,50.86
2023-10-30T13:27:19.594Z,52.04
2023-10-30T13:29:46.168Z,51.78
2023-10-30T13:32:12.738Z,51.01
2023-10-30T13:34:40.635Z,51.74
2023-10-30T13:37:07.542Z,51.28
2023-10-30T13:39:34.275Z,52.22
2023-10-30T13:42:00.796Z,51.69
2023-10-30T13:44:27.551Z,51.59
2023-10-30T13:46:54.410Z,52.23
2023-10-30T13:49:21.022Z,51.89
2023-10-30T13:51:49.081Z,51.35
2023-10-30T13:54:15.591Z,51.83
2023-10-30T13:56:42.293Z,51.82
2023-10-30T13:59:08.966Z,51.90
2023-10-30T14:01:35.631Z,53.07
2023-10-30T14:04:02.990Z,52.99
2023-10-30T14:06:29.854Z,53.26
2023-10-30T14:08:58.879Z,53.29
2023-10-30T14:11:27.672Z,53.26
2023-10-30T14:13:56.273Z,53.91
2023-10-30T14:16:56.659Z,53.33
2023-10-30T14:23:33.497Z,54.50
2023-10-30T14:26:01.718Z,54.78
2023-10-30T14:28:28.506Z,55.42
2023-10-30T14:30:55.066Z,55.61
2023-10-30T14:33:21.615Z,55.83
2023-10-30T14:35:51.171Z,55.89
2023-10-30T14:38:17.624Z,56.10
2023-10-30T14:40:44.162Z,55.91
2023-10-30T14:43:13.175Z,56.56
2023-10-30T14:45:39.748Z,56.28
2023-10-30T14:48:06.321Z,56.03
2023-10-30T14:50:32.908Z,55.68
2023-10-30T14:52:59.824Z,56.42
2023-10-30T14:55:26.459Z,56.42
2023-10-30T14:57:52.947Z,56.32
2023-10-30T15:00:20.841Z,56.12
2023-10-30T15:02:47.513Z,55.58
2023-10-30T15:05:14.167Z,56.08
2023-10-30T15:07:40.877Z,55.93
2023-10-30T15:10:08.474Z,55.47
2023-10-30T15:12:35.073Z,55.96
2023-10-30T15:15:01.840Z,56.20
2023-10-30T15:17:33.155Z,56.14
2023-10-30T15:20:01.740Z,56.24
2023-10-30T15:22:28.277Z,56.55
2023-10-30T15:24:54.820Z,56.89
2023-10-30T15:27:21.288Z,57.00
2023-10-30T15:29:47.770Z,56.78
2023-10-30T15:32:14.297Z,57.06
2023-10-30T15:34:42.234Z,56.81
2023-10-30T15:37:08.850Z,57.14
2023-10-30T15:39:35.835Z,57.33
2023-10-30T15:42:02.365Z,57.80
2023-10-30T15:44:28.890Z,57.97
2023-10-30T15:47:10.658Z,58.00
2023-10-30T15:49:46.979Z,58.79
2023-10-30T15:59:43.045Z,61.73
2023-10-30T16:02:09.696Z,61.61
2023-10-30T16:07:07.669Z,63.15
2023-10-30T16:09:34.624Z,64.24
2023-10-30T16:14:33.703Z,64.40
2023-10-30T16:17:18.967Z,65.04
2023-10-30T16:20:21.457Z,65.63
2023-10-30T16:22:38.823Z,65.87
2023-10-30T16:25:06.230Z,66.81
2023-10-30T16:27:32.941Z,67.66
2023-10-30T16:29:59.719Z,67.13
2023-10-30T16:32:26.672Z,66.83
2023-10-30T16:34:53.476Z,67.33
2023-10-30T16:37:19.994Z,67.14
2023-10-30T16:39:48.134Z,68.27
2023-10-30T16:42:14.790Z,68.01
2023-10-30T16:44:41.359Z,67.53
2023-10-30T16:47:07.988Z,68.07
2023-10-30T16:49:34.677Z,68.06
2023-10-30T16:52:01.204Z,68.74
2023-10-30T16:54:27.741Z,68.22
2023-10-30T16:56:55.801Z,68.63
2023-10-30T16:59:22.408Z,68.47
2023-10-30T17:01:49.124Z,67.92
2023-10-30T17:04:15.714Z,67.74
2023-10-30T17:06:42.379Z,67.96
2023-10-30T17:09:08.989Z,67.63
2023-10-30T17:11:35.519Z,68.39
2023-10-30T17:14:05.893Z,68.69
2023-10-30T17:16:32.582Z,69.05
2023-10-30T17:18:59.442Z,69.41
2023-10-30T17:21:26.291Z,69.01
2023-10-30T17:23:52.779Z,68.86
2023-10-30T17:26:19.265Z,68.59
2023-10-30T17:28:46.183Z,68.80
2023-10-30T17:31:14.928Z,68.64
2023-10-30T17:33:41.379Z,69.02
2023-10-30T17:36:08.828Z,69.62
2023-10-30T17:38:35.702Z,68.83
2023-10-30T17:41:10.670Z,68.71
2023-10-30T17:43:41.558Z,68.30
2023-10-30T17:46:41.485Z,68.57
2023-10-30T17:50:10.845Z,68.08
2023-10-30T17:52:37.458Z,68.64
2023-10-30T17:55:04.690Z,68.48
2023-10-30T17:57:31.240Z,68.24
2023-10-30T17:59:57.734Z,68.42
2023-10-30T18:02:28.499Z,68.26
2023-10-30T18:04:55.281Z,68.53
2023-10-30T18:07:21.805Z,68.10
2023-10-30T18:09:48.463Z,68.33
2023-10-30T18:12:15.893Z,68.74
2023-10-30T18:14:42.403Z,68.66
2023-10-30T18:17:08.892Z,68.51
2023-10-30T18:19:36.736Z,68.33
2023-10-30T18:22:03.540Z,68.04
2023-10-30T18:24:34.643Z,68.30
2023-10-30T18:27:21.667Z,67.94
2023-10-30T18:29:53.152Z,68.20
2023-10-30T18:32:22.913Z,68.30
2023-10-30T18:35:06.545Z,68.03
2023-10-30T18:37:33.258Z,68.22
2023-10-30T18:40:01.742Z,68.52
2023-10-30T18:42:30.571Z,67.56
2023-10-30T18:44:57.824Z,67.73
2023-10-30T18:47:24.644Z,67.95
2023-10-30T18:49:54.564Z,68.28
2023-10-30T18:52:22.642Z,67.99
2023-10-30T18:54:51.091Z,67.98
2023-10-30T18:57:17.626Z,67.57
2023-10-30T18:59:46.738Z,67.72
2023-10-30T19:03:14.043Z,67.65
2023-10-30T19:27:24.065Z,69.40
2023-10-30T19:29:59.785Z,69.43
2023-10-30T19:33:10.696Z,69.46
2023-10-30T19:36:10.230Z,68.90
2023-10-30T19:38:39.667Z,68.91
2023-10-30T19:41:06.381Z,69.34
2023-10-30T19:43:45.661Z,69.38
2023-10-30T19:46:12.447Z,69.96
2023-10-30T19:48:40.779Z,69.88
2023-10-30T19:51:07.379Z,71.09
2023-10-30T19:53:38.748Z,70.73
2023-10-30T19:56:10.395Z,70.39
2023-10-30T19:58:37.088Z,70.52
2023-10-30T20:01:04.207Z,70.13
2023-10-30T20:03:30.857Z,70.99
2023-10-30T20:06:06.114Z,70.08
2023-10-30T20:08:36.198Z,70.92
2023-10-30T20:11:05.985Z,71.02
2023-10-30T20:13:33.703Z,71.08
2023-10-30T20:16:02.439Z,70.91
2023-10-30T20:18:31.094Z,71.81
2023-10-30T20:20:59.534Z,71.40
2023-10-30T20:26:24.464Z,71.20
2023-10-30T20:29:03.926Z,71.08
2023-10-30T20:31:32.603Z,71.63
2023-10-30T20:34:05.136Z,72.77
2023-10-30T20:36:34.660Z,71.69
2023-10-30T20:39:01.699Z,71.22
2023-10-30T20:41:28.719Z,72.13
2023-10-30T20:43:57.516Z,71.82
2023-10-30T20:46:25.938Z,71.69
2023-10-30T20:49:00.375Z,71.82
2023-10-30T20:51:27.561Z,71.99
2023-10-30T20:53:58.851Z,71.93
2023-10-30T20:56:28.034Z,71.45
2023-10-30T20:58:55.673Z,71.23
2023-10-30T21:01:23.819Z,71.57
2023-10-30T21:03:53.667Z,72.38
2023-10-30T21:06:20.342Z,71.72
2023-10-30T21:08:59.575Z,71.65
2023-10-30T21:11:27.830Z,71.61
2023-10-30T21:13:57.562Z,72.00
2023-10-30T21:16:24.294Z,72.40
2023-10-30T21:18:51.403Z,72.10
2023-10-30T21:21:18.027Z,72.35
2023-10-30T21:23:47.615Z,71.65
2023-10-30T21:26:15.605Z,71.99
2023-10-30T21:28:42.155Z,72.75
2023-10-30T21:31:10.394Z,72.71
2023-10-30T21:33:39.411Z,72.10
2023-10-30T21:36:06.429Z,71.61
2023-10-30T21:38:33.193Z,71.55
2023-10-30T21:41:00.307Z,71.57
2023-10-30T21:43:28.951Z,71.31
2023-10-30T21:45:55.661Z,71.60
2023-10-30T21:48:22.310Z,71.98
2023-10-30T21:50:51.284Z,71.23
2023-10-30T21:53:18.265Z,70.82
2023-10-30T21:55:45.345Z,71.14
2023-10-30T21:58:12.344Z,72.02
2023-10-30T22:00:40.447Z,72.93
2023-10-30T22:03:07.187Z,73.19
2023-10-30T22:05:34.355Z,71.93
2023-10-30T22:08:01.042Z,72.28
2023-10-30T22:10:27.886Z,72.03
2023-10-30T22:12:54.638Z,71.88
2023-10-30T22:15:21.460Z,72.16
2023-10-30T22:17:51.908Z,72.36
2023-10-30T22:20:18.439Z,73.08
2023-10-30T22:22:45.080Z,73.57
2023-10-30T22:25:11.927Z,74.61
2023-10-30T22:27:40.276Z,73.93
2023-10-30T22:30:11.467Z,73.21
2023-10-30T22:32:40.407Z,72.88
2023-10-30T22:35:09.337Z,72.73
2023-10-30T22:37:36.285Z,73.13
2023-10-30T22:40:03.166Z,72.83
2023-10-30T22:42:29.801Z,73.62
2023-10-30T22:44:57.452Z,74.26
2023-10-30T22:47:26.391Z,73.91
2023-10-30T22:49:55.681Z,73.49
2023-10-30T22:52:23.733Z,74.30
2023-10-30T22:54:50.393Z,73.13
2023-10-30T22:57:17.147Z,74.20
2023-10-30T22:59:43.741Z,74.62
2023-10-30T23:02:10.262Z,73.74
2023-10-30T23:04:36.993Z,74.19
2023-10-30T23:07:04.181Z,73.74
2023-10-30T23:09:32.135Z,73.15
2023-10-30T23:11:58.685Z,73.67
2023-10-30T23:14:25.378Z,73.33
2023-10-30T23:16:52.164Z,72.97
2023-10-30T23:19:18.958Z,73.04
2023-10-30T23:21:45.618Z,72.64
2023-10-30T23:24:12.300Z,72.06
2023-10-30T23:26:40.404Z,72.97
2023-10-30T23:29:07.226Z,73.01
2023-10-30T23:31:34.505Z,72.24
2023-10-30T23:34:01.256Z,72.21
2023-10-30T23:36:27.764Z,72.00
2023-10-30T23:38:54.761Z,71.94
2023-10-30T23:41:21.338Z,71.13
2023-10-30T23:43:49.308Z,71.14
2023-10-30T23:46:18.485Z,70.77
2023-10-30T23:48:47.281Z,70.77
2023-10-30T23:51:13.955Z,70.82
2023-10-30T23:53:40.831Z,69.98
2023-10-30T23:56:11.378Z,70.94
2023-10-30T23:58:40.189Z,69.79
